sensor_id;sensor_type;location;lat;lon;timestamp;P1;durP1;ratioP1;P2;durP2;ratioP2
18501;SDS011;68437;52.236;5.710;2023-06-10T00:01:17;11.98;;;5.07;;
18501;SDS011;68437;52.236;5.710;2023-06-10T00:03:44;10.70;;;5.07;;
18501;SDS011;68437;52.236;5.710;2023-06-10T00:06:10;8.90;;;5.00;;
18501;SDS011;68437;52.236;5.710;2023-06-10T00:08:39;9.70;;;5.15;;
18501;SDS011;68437;52.236;5.710;2023-06-10T00:11:05;8.15;;;5.00;;
18501;SDS011;68437;52.236;5.710;2023-06-10T00:13:32;10.18;;;5.07;;
18501;SDS011;68437;52.236;5.710;2023-06-10T00:15:59;10.73;;;5.22;;
18501;SDS011;68437;52.236;5.710;2023-06-10T00:18:26;11.35;;;5.05;;
18501;SDS011;68437;52.236;5.710;2023-06-10T00:20:56;12.02;;;5.10;;
18501;SDS011;68437;52.236;5.710;2023-06-10T00:23:28;14.30;;;5.60;;
18501;SDS011;68437;52.236;5.710;2023-06-10T00:25:57;12.90;;;5.22;;
18501;SDS011;68437;52.236;5.710;2023-06-10T00:28:24;12.90;;;5.40;;
18501;SDS011;68437;52.236;5.710;2023-06-10T00:30:51;11.68;;;5.10;;
18501;SDS011;68437;52.236;5.710;2023-06-10T00:33:18;12.38;;;5.50;;
18501;SDS011;68437;52.236;5.710;2023-06-10T00:35:44;10.57;;;5.25;;
18501;SDS011;68437;52.236;5.710;2023-06-10T00:38:12;12.27;;;5.28;;
18501;SDS011;68437;52.236;5.710;2023-06-10T00:40:39;10.65;;;5.32;;
18501;SDS011;68437;52.236;5.710;2023-06-10T00:43:08;15.25;;;5.90;;
18501;SDS011;68437;52.236;5.710;2023-06-10T00:45:35;11.32;;;4.97;;
18501;SDS011;68437;52.236;5.710;2023-06-10T00:48:02;11.90;;;6.00;;
18501;SDS011;68437;52.236;5.710;2023-06-10T00:50:30;13.57;;;5.55;;
18501;SDS011;68437;52.236;5.710;2023-06-10T00:52:58;8.70;;;4.93;;
18501;SDS011;68437;52.236;5.710;2023-06-10T00:55:25;10.40;;;5.70;;
18501;SDS011;68437;52.236;5.710;2023-06-10T00:57:53;11.95;;;5.25;;
18501;SDS011;68437;52.236;5.710;2023-06-10T01:00:21;8.95;;;5.63;;
18501;SDS011;68437;52.236;5.710;2023-06-10T01:02:48;10.85;;;5.40;;
18501;SDS011;68437;52.236;5.710;2023-06-10T01:05:17;11.77;;;5.28;;
18501;SDS011;68437;52.236;5.710;2023-06-10T01:07:46;10.10;;;5.53;;
18501;SDS011;68437;52.236;5.710;2023-06-10T01:10:23;11.52;;;5.60;;
18501;SDS011;68437;52.236;5.710;2023-06-10T01:12:58;10.85;;;5.40;;
18501;SDS011;68437;52.236;5.710;2023-06-10T01:15:29;13.98;;;6.22;;
18501;SDS011;68437;52.236;5.710;2023-06-10T01:17:57;11.38;;;5.57;;
18501;SDS011;68437;52.236;5.710;2023-06-10T01:20:26;9.57;;;5.43;;
18501;SDS011;68437;52.236;5.710;2023-06-10T01:22:56;11.18;;;5.72;;
18501;SDS011;68437;52.236;5.710;2023-06-10T01:25:23;10.40;;;5.85;;
18501;SDS011;68437;52.236;5.710;2023-06-10T01:27:54;15.43;;;6.07;;
18501;SDS011;68437;52.236;5.710;2023-06-10T01:30:29;12.05;;;5.75;;
18501;SDS011;68437;52.236;5.710;2023-06-10T01:33:02;12.73;;;5.78;;
18501;SDS011;68437;52.236;5.710;2023-06-10T01:35:33;11.93;;;6.18;;
18501;SDS011;68437;52.236;5.710;2023-06-10T01:38:04;11.95;;;5.57;;
18501;SDS011;68437;52.236;5.710;2023-06-10T01:40:32;11.77;;;5.80;;
18501;SDS011;68437;52.236;5.710;2023-06-10T01:42:59;10.50;;;5.53;;
18501;SDS011;68437;52.236;5.710;2023-06-10T01:45:26;10.32;;;5.85;;
18501;SDS011;68437;52.236;5.710;2023-06-10T01:47:53;11.15;;;5.82;;
18501;SDS011;68437;52.236;5.710;2023-06-10T01:50:20;10.70;;;5.65;;
18501;SDS011;68437;52.236;5.710;2023-06-10T01:52:47;16.90;;;6.22;;
18501;SDS011;68437;52.236;5.710;2023-06-10T01:55:15;12.43;;;6.15;;
18501;SDS011;68437;52.236;5.710;2023-06-10T01:57:42;10.52;;;6.25;;
18501;SDS011;68437;52.236;5.710;2023-06-10T02:00:09;11.57;;;6.15;;
18501;SDS011;68437;52.236;5.710;2023-06-10T02:02:36;13.20;;;6.40;;
18501;SDS011;68437;52.236;5.710;2023-06-10T02:05:03;13.65;;;6.43;;
18501;SDS011;68437;52.236;5.710;2023-06-10T02:07:31;11.90;;;6.07;;
18501;SDS011;68437;52.236;5.710;2023-06-10T02:09:57;11.95;;;6.05;;
18501;SDS011;68437;52.236;5.710;2023-06-10T02:12:25;13.10;;;6.03;;
18501;SDS011;68437;52.236;5.710;2023-06-10T02:14:52;14.85;;;6.18;;
18501;SDS011;68437;52.236;5.710;2023-06-10T02:17:19;9.98;;;5.75;;
18501;SDS011;68437;52.236;5.710;2023-06-10T02:19:46;13.27;;;5.97;;
18501;SDS011;68437;52.236;5.710;2023-06-10T02:22:17;13.05;;;6.13;;
18501;SDS011;68437;52.236;5.710;2023-06-10T02:24:45;11.68;;;6.03;;
18501;SDS011;68437;52.236;5.710;2023-06-10T02:27:12;16.77;;;6.40;;
18501;SDS011;68437;52.236;5.710;2023-06-10T02:29:40;12.68;;;6.47;;
18501;SDS011;68437;52.236;5.710;2023-06-10T02:32:08;12.15;;;5.63;;
18501;SDS011;68437;52.236;5.710;2023-06-10T02:34:35;10.20;;;6.00;;
18501;SDS011;68437;52.236;5.710;2023-06-10T02:37:02;11.32;;;6.40;;
18501;SDS011;68437;52.236;5.710;2023-06-10T02:39:29;12.50;;;5.88;;
18501;SDS011;68437;52.236;5.710;2023-06-10T02:41:56;16.35;;;6.53;;
18501;SDS011;68437;52.236;5.710;2023-06-10T02:44:23;15.60;;;6.72;;
18501;SDS011;68437;52.236;5.710;2023-06-10T02:46:51;12.40;;;6.07;;
18501;SDS011;68437;52.236;5.710;2023-06-10T02:49:18;14.27;;;6.53;;
18501;SDS011;68437;52.236;5.710;2023-06-10T02:51:45;16.10;;;6.50;;
18501;SDS011;68437;52.236;5.710;2023-06-10T02:54:12;13.98;;;6.50;;
18501;SDS011;68437;52.236;5.710;2023-06-10T02:56:38;11.30;;;6.00;;
18501;SDS011;68437;52.236;5.710;2023-06-10T02:59:06;12.07;;;6.50;;
18501;SDS011;68437;52.236;5.710;2023-06-10T03:01:33;12.52;;;6.10;;
18501;SDS011;68437;52.236;5.710;2023-06-10T03:04:03;13.70;;;6.63;;
18501;SDS011;68437;52.236;5.710;2023-06-10T03:06:30;14.13;;;6.57;;
18501;SDS011;68437;52.236;5.710;2023-06-10T03:08:59;11.77;;;6.22;;
18501;SDS011;68437;52.236;5.710;2023-06-10T03:11:25;16.80;;;6.75;;
18501;SDS011;68437;52.236;5.710;2023-06-10T03:13:52;12.88;;;6.60;;
18501;SDS011;68437;52.236;5.710;2023-06-10T03:16:20;13.27;;;6.82;;
18501;SDS011;68437;52.236;5.710;2023-06-10T03:18:47;14.52;;;6.55;;
18501;SDS011;68437;52.236;5.710;2023-06-10T03:21:16;14.98;;;6.80;;
18501;SDS011;68437;52.236;5.710;2023-06-10T03:23:42;13.85;;;6.70;;
18501;SDS011;68437;52.236;5.710;2023-06-10T03:26:10;14.98;;;6.60;;
18501;SDS011;68437;52.236;5.710;2023-06-10T03:28:38;17.55;;;6.53;;
18501;SDS011;68437;52.236;5.710;2023-06-10T03:31:08;12.13;;;6.40;;
18501;SDS011;68437;52.236;5.710;2023-06-10T03:33:37;12.63;;;6.25;;
18501;SDS011;68437;52.236;5.710;2023-06-10T03:36:04;11.73;;;6.43;;
18501;SDS011;68437;52.236;5.710;2023-06-10T03:38:33;13.45;;;7.28;;
18501;SDS011;68437;52.236;5.710;2023-06-10T03:41:00;13.68;;;6.63;;
18501;SDS011;68437;52.236;5.710;2023-06-10T03:43:27;12.98;;;7.00;;
18501;SDS011;68437;52.236;5.710;2023-06-10T03:45:54;14.30;;;7.07;;
18501;SDS011;68437;52.236;5.710;2023-06-10T03:48:23;13.80;;;6.80;;
18501;SDS011;68437;52.236;5.710;2023-06-10T03:50:50;12.27;;;6.47;;
18501;SDS011;68437;52.236;5.710;2023-06-10T03:53:17;14.60;;;7.05;;
18501;SDS011;68437;52.236;5.710;2023-06-10T03:55:45;16.63;;;6.47;;
18501;SDS011;68437;52.236;5.710;2023-06-10T03:58:13;14.90;;;6.95;;
18501;SDS011;68437;52.236;5.710;2023-06-10T04:00:40;13.20;;;6.95;;
18501;SDS011;68437;52.236;5.710;2023-06-10T04:03:07;15.07;;;6.55;;
18501;SDS011;68437;52.236;5.710;2023-06-10T04:05:39;12.38;;;6.70;;
18501;SDS011;68437;52.236;5.710;2023-06-10T04:08:06;12.85;;;7.18;;
18501;SDS011;68437;52.236;5.710;2023-06-10T04:10:33;16.15;;;6.53;;
18501;SDS011;68437;52.236;5.710;2023-06-10T04:13:01;13.82;;;6.72;;
18501;SDS011;68437;52.236;5.710;2023-06-10T04:15:29;12.77;;;6.68;;
18501;SDS011;68437;52.236;5.710;2023-06-10T04:17:57;14.32;;;6.88;;
18501;SDS011;68437;52.236;5.710;2023-06-10T04:20:24;13.43;;;7.05;;
18501;SDS011;68437;52.236;5.710;2023-06-10T04:22:51;17.48;;;6.32;;
18501;SDS011;68437;52.236;5.710;2023-06-10T04:25:18;13.95;;;6.78;;
18501;SDS011;68437;52.236;5.710;2023-06-10T04:27:45;10.85;;;6.03;;
18501;SDS011;68437;52.236;5.710;2023-06-10T04:30:14;15.88;;;7.13;;
18501;SDS011;68437;52.236;5.710;2023-06-10T04:32:42;14.55;;;6.80;;
18501;SDS011;68437;52.236;5.710;2023-06-10T04:35:11;13.07;;;7.10;;
18501;SDS011;68437;52.236;5.710;2023-06-10T04:37:39;12.43;;;6.97;;
18501;SDS011;68437;52.236;5.710;2023-06-10T04:40:06;13.02;;;7.03;;
18501;SDS011;68437;52.236;5.710;2023-06-10T04:42:34;13.75;;;7.35;;
18501;SDS011;68437;52.236;5.710;2023-06-10T04:45:00;12.45;;;7.22;;
18501;SDS011;68437;52.236;5.710;2023-06-10T04:47:30;15.98;;;7.10;;
18501;SDS011;68437;52.236;5.710;2023-06-10T04:49:58;17.77;;;7.10;;
18501;SDS011;68437;52.236;5.710;2023-06-10T04:52:25;17.25;;;7.55;;
18501;SDS011;68437;52.236;5.710;2023-06-10T04:54:51;16.20;;;7.68;;
18501;SDS011;68437;52.236;5.710;2023-06-10T04:57:18;15.43;;;7.28;;
18501;SDS011;68437;52.236;5.710;2023-06-10T04:59:45;17.45;;;7.70;;
18501;SDS011;68437;52.236;5.710;2023-06-10T05:02:12;15.30;;;6.95;;
18501;SDS011;68437;52.236;5.710;2023-06-10T05:04:40;13.98;;;7.07;;
18501;SDS011;68437;52.236;5.710;2023-06-10T05:07:07;15.95;;;7.50;;
18501;SDS011;68437;52.236;5.710;2023-06-10T05:09:34;16.20;;;7.28;;
18501;SDS011;68437;52.236;5.710;2023-06-10T05:12:00;12.57;;;7.38;;
18501;SDS011;68437;52.236;5.710;2023-06-10T05:14:28;17.00;;;7.60;;
18501;SDS011;68437;52.236;5.710;2023-06-10T05:16:55;18.50;;;7.40;;
18501;SDS011;68437;52.236;5.710;2023-06-10T05:19:22;16.98;;;7.03;;
18501;SDS011;68437;52.236;5.710;2023-06-10T05:21:50;14.40;;;7.25;;
18501;SDS011;68437;52.236;5.710;2023-06-10T05:24:17;14.45;;;7.40;;
18501;SDS011;68437;52.236;5.710;2023-06-10T05:26:43;20.67;;;7.90;;
18501;SDS011;68437;52.236;5.710;2023-06-10T05:29:10;31.25;;;8.07;;
18501;SDS011;68437;52.236;5.710;2023-06-10T05:31:37;33.13;;;8.00;;
18501;SDS011;68437;52.236;5.710;2023-06-10T05:34:04;15.63;;;7.50;;
18501;SDS011;68437;52.236;5.710;2023-06-10T05:36:30;15.25;;;7.30;;
18501;SDS011;68437;52.236;5.710;2023-06-10T05:38:59;15.20;;;7.50;;
18501;SDS011;68437;52.236;5.710;2023-06-10T05:41:25;16.27;;;7.18;;
18501;SDS011;68437;52.236;5.710;2023-06-10T05:43:52;13.10;;;7.20;;
18501;SDS011;68437;52.236;5.710;2023-06-10T05:46:19;14.73;;;7.32;;
18501;SDS011;68437;52.236;5.710;2023-06-10T05:48:46;10.77;;;6.68;;
18501;SDS011;68437;52.236;5.710;2023-06-10T05:51:13;14.93;;;7.43;;
18501;SDS011;68437;52.236;5.710;2023-06-10T05:53:39;15.23;;;7.40;;
18501;SDS011;68437;52.236;5.710;2023-06-10T05:56:08;16.17;;;7.32;;
18501;SDS011;68437;52.236;5.710;2023-06-10T05:58:34;14.23;;;7.60;;
18501;SDS011;68437;52.236;5.710;2023-06-10T06:01:01;17.45;;;8.45;;
18501;SDS011;68437;52.236;5.710;2023-06-10T06:03:28;16.50;;;7.97;;
18501;SDS011;68437;52.236;5.710;2023-06-10T06:05:55;15.23;;;7.80;;
18501;SDS011;68437;52.236;5.710;2023-06-10T06:08:21;14.65;;;7.65;;
18501;SDS011;68437;52.236;5.710;2023-06-10T06:10:48;13.68;;;7.28;;
18501;SDS011;68437;52.236;5.710;2023-06-10T06:13:17;16.23;;;7.53;;
18501;SDS011;68437;52.236;5.710;2023-06-10T06:15:44;13.98;;;7.43;;
18501;SDS011;68437;52.236;5.710;2023-06-10T06:18:11;11.75;;;6.82;;
18501;SDS011;68437;52.236;5.710;2023-06-10T06:20:37;14.65;;;6.60;;
18501;SDS011;68437;52.236;5.710;2023-06-10T06:23:04;13.63;;;7.45;;
18501;SDS011;68437;52.236;5.710;2023-06-10T06:25:33;18.38;;;7.80;;
18501;SDS011;68437;52.236;5.710;2023-06-10T06:28:01;13.07;;;7.28;;
18501;SDS011;68437;52.236;5.710;2023-06-10T06:30:29;13.98;;;7.47;;
18501;SDS011;68437;52.236;5.710;2023-06-10T06:32:56;16.10;;;7.18;;
18501;SDS011;68437;52.236;5.710;2023-06-10T06:35:22;12.80;;;7.70;;
18501;SDS011;68437;52.236;5.710;2023-06-10T06:37:52;14.13;;;6.82;;
18501;SDS011;68437;52.236;5.710;2023-06-10T06:40:19;14.68;;;7.13;;
18501;SDS011;68437;52.236;5.710;2023-06-10T06:42:46;11.88;;;7.25;;
18501;SDS011;68437;52.236;5.710;2023-06-10T06:45:15;17.27;;;7.30;;
18501;SDS011;68437;52.236;5.710;2023-06-10T06:47:43;12.65;;;6.72;;
18501;SDS011;68437;52.236;5.710;2023-06-10T06:50:10;11.32;;;6.85;;
18501;SDS011;68437;52.236;5.710;2023-06-10T06:52:37;11.52;;;6.53;;
18501;SDS011;68437;52.236;5.710;2023-06-10T06:55:04;18.92;;;6.53;;
18501;SDS011;68437;52.236;5.710;2023-06-10T06:57:32;11.77;;;6.90;;
18501;SDS011;68437;52.236;5.710;2023-06-10T06:59:59;18.63;;;7.18;;
18501;SDS011;68437;52.236;5.710;2023-06-10T07:02:25;14.48;;;7.45;;
18501;SDS011;68437;52.236;5.710;2023-06-10T07:04:53;15.55;;;7.82;;
18501;SDS011;68437;52.236;5.710;2023-06-10T07:07:21;13.45;;;7.00;;
18501;SDS011;68437;52.236;5.710;2023-06-10T07:09:48;14.57;;;6.95;;
18501;SDS011;68437;52.236;5.710;2023-06-10T07:12:14;11.77;;;6.80;;
18501;SDS011;68437;52.236;5.710;2023-06-10T07:14:42;13.48;;;6.82;;
18501;SDS011;68437;52.236;5.710;2023-06-10T07:17:09;10.63;;;5.90;;
18501;SDS011;68437;52.236;5.710;2023-06-10T07:19:36;11.50;;;6.05;;
18501;SDS011;68437;52.236;5.710;2023-06-10T07:22:05;13.73;;;6.53;;
18501;SDS011;68437;52.236;5.710;2023-06-10T07:24:32;16.23;;;7.03;;
18501;SDS011;68437;52.236;5.710;2023-06-10T07:26:58;11.88;;;6.40;;
18501;SDS011;68437;52.236;5.710;2023-06-10T07:29:25;12.88;;;6.60;;
18501;SDS011;68437;52.236;5.710;2023-06-10T07:31:52;11.88;;;6.75;;
18501;SDS011;68437;52.236;5.710;2023-06-10T07:34:19;11.77;;;6.45;;
18501;SDS011;68437;52.236;5.710;2023-06-10T07:36:46;11.90;;;6.57;;
18501;SDS011;68437;52.236;5.710;2023-06-10T07:39:14;15.60;;;7.00;;
18501;SDS011;68437;52.236;5.710;2023-06-10T07:41:41;11.93;;;6.63;;
18501;SDS011;68437;52.236;5.710;2023-06-10T07:44:08;13.10;;;6.18;;
18501;SDS011;68437;52.236;5.710;2023-06-10T07:46:34;12.43;;;6.65;;
18501;SDS011;68437;52.236;5.710;2023-06-10T07:49:04;11.07;;;6.30;;
18501;SDS011;68437;52.236;5.710;2023-06-10T07:51:31;13.77;;;6.53;;
18501;SDS011;68437;52.236;5.710;2023-06-10T07:54:01;11.77;;;6.68;;
18501;SDS011;68437;52.236;5.710;2023-06-10T07:56:29;18.88;;;6.55;;
18501;SDS011;68437;52.236;5.710;2023-06-10T07:58:56;11.85;;;6.30;;
18501;SDS011;68437;52.236;5.710;2023-06-10T08:01:23;14.13;;;5.90;;
18501;SDS011;68437;52.236;5.710;2023-06-10T08:03:50;12.48;;;6.15;;
18501;SDS011;68437;52.236;5.710;2023-06-10T08:06:17;12.10;;;6.32;;
18501;SDS011;68437;52.236;5.710;2023-06-10T08:08:46;11.15;;;6.22;;
18501;SDS011;68437;52.236;5.710;2023-06-10T08:11:12;14.02;;;6.35;;
18501;SDS011;68437;52.236;5.710;2023-06-10T08:13:41;14.80;;;6.28;;
18501;SDS011;68437;52.236;5.710;2023-06-10T08:16:07;12.80;;;5.78;;
18501;SDS011;68437;52.236;5.710;2023-06-10T08:18:37;8.73;;;5.50;;
18501;SDS011;68437;52.236;5.710;2023-06-10T08:21:05;9.15;;;5.55;;
18501;SDS011;68437;52.236;5.710;2023-06-10T08:23:32;11.35;;;6.40;;
18501;SDS011;68437;52.236;5.710;2023-06-10T08:25:59;11.85;;;6.30;;
18501;SDS011;68437;52.236;5.710;2023-06-10T08:28:25;13.95;;;6.15;;
18501;SDS011;68437;52.236;5.710;2023-06-10T08:30:54;11.70;;;5.65;;
18501;SDS011;68437;52.236;5.710;2023-06-10T08:33:20;11.80;;;5.80;;
18501;SDS011;68437;52.236;5.710;2023-06-10T08:35:47;11.68;;;5.82;;
18501;SDS011;68437;52.236;5.710;2023-06-10T08:38:14;11.18;;;5.55;;
18501;SDS011;68437;52.236;5.710;2023-06-10T08:40:41;11.50;;;5.75;;
18501;SDS011;68437;52.236;5.710;2023-06-10T08:43:10;8.98;;;5.53;;
18501;SDS011;68437;52.236;5.710;2023-06-10T08:45:43;10.55;;;5.40;;
18501;SDS011;68437;52.236;5.710;2023-06-10T08:48:26;9.88;;;6.07;;
18501;SDS011;68437;52.236;5.710;2023-06-10T08:50:55;9.48;;;5.55;;
18501;SDS011;68437;52.236;5.710;2023-06-10T08:53:23;10.18;;;5.72;;
18501;SDS011;68437;52.236;5.710;2023-06-10T08:55:52;15.02;;;6.03;;
18501;SDS011;68437;52.236;5.710;2023-06-10T08:58:21;11.57;;;5.80;;
18501;SDS011;68437;52.236;5.710;2023-06-10T09:00:48;11.27;;;5.50;;
18501;SDS011;68437;52.236;5.710;2023-06-10T09:03:16;12.13;;;5.85;;
18501;SDS011;68437;52.236;5.710;2023-06-10T09:05:44;8.23;;;5.35;;
18501;SDS011;68437;52.236;5.710;2023-06-10T09:08:11;11.70;;;5.35;;
18501;SDS011;68437;52.236;5.710;2023-06-10T09:10:41;11.32;;;5.50;;
18501;SDS011;68437;52.236;5.710;2023-06-10T09:13:08;12.70;;;6.07;;
18501;SDS011;68437;52.236;5.710;2023-06-10T09:15:35;12.82;;;5.70;;
18501;SDS011;68437;52.236;5.710;2023-06-10T09:18:02;9.68;;;5.38;;
18501;SDS011;68437;52.236;5.710;2023-06-10T09:20:30;10.43;;;5.15;;
18501;SDS011;68437;52.236;5.710;2023-06-10T09:22:58;11.70;;;5.40;;
18501;SDS011;68437;52.236;5.710;2023-06-10T09:25:33;12.38;;;6.25;;
18501;SDS011;68437;52.236;5.710;2023-06-10T09:28:02;9.98;;;5.57;;
18501;SDS011;68437;52.236;5.710;2023-06-10T09:30:31;11.70;;;5.20;;
18501;SDS011;68437;52.236;5.710;2023-06-10T09:32:59;10.52;;;5.32;;
18501;SDS011;68437;52.236;5.710;2023-06-10T09:35:28;10.05;;;5.63;;
18501;SDS011;68437;52.236;5.710;2023-06-10T09:37:59;9.27;;;5.10;;
18501;SDS011;68437;52.236;5.710;2023-06-10T09:40:30;11.43;;;5.70;;
18501;SDS011;68437;52.236;5.710;2023-06-10T09:42:57;11.05;;;5.25;;
18501;SDS011;68437;52.236;5.710;2023-06-10T09:45:28;7.95;;;5.10;;
18501;SDS011;68437;52.236;5.710;2023-06-10T09:47:56;9.80;;;5.22;;
18501;SDS011;68437;52.236;5.710;2023-06-10T09:50:23;11.25;;;5.45;;
18501;SDS011;68437;52.236;5.710;2023-06-10T09:52:50;11.27;;;5.20;;
18501;SDS011;68437;52.236;5.710;2023-06-10T09:55:19;10.77;;;4.72;;
18501;SDS011;68437;52.236;5.710;2023-06-10T09:57:46;9.10;;;4.97;;
18501;SDS011;68437;52.236;5.710;2023-06-10T10:00:18;8.50;;;4.90;;
18501;SDS011;68437;52.236;5.710;2023-06-10T10:02:51;9.95;;;5.22;;
18501;SDS011;68437;52.236;5.710;2023-06-10T10:05:20;9.00;;;5.20;;
18501;SDS011;68437;52.236;5.710;2023-06-10T10:07:47;12.05;;;4.90;;
18501;SDS011;68437;52.236;5.710;2023-06-10T10:10:15;10.27;;;4.82;;
18501;SDS011;68437;52.236;5.710;2023-06-10T10:12:47;9.68;;;4.55;;
18501;SDS011;68437;52.236;5.710;2023-06-10T10:15:18;7.43;;;4.45;;
18501;SDS011;68437;52.236;5.710;2023-06-10T10:17:49;11.23;;;5.00;;
18501;SDS011;68437;52.236;5.710;2023-06-10T10:20:20;11.23;;;5.07;;
18501;SDS011;68437;52.236;5.710;2023-06-10T10:22:51;6.45;;;4.43;;
18501;SDS011;68437;52.236;5.710;2023-06-10T10:25:23;10.77;;;5.00;;
18501;SDS011;68437;52.236;5.710;2023-06-10T10:27:52;10.10;;;4.90;;
18501;SDS011;68437;52.236;5.710;2023-06-10T10:30:22;8.65;;;4.65;;
18501;SDS011;68437;52.236;5.710;2023-06-10T10:32:52;8.43;;;4.80;;
18501;SDS011;68437;52.236;5.710;2023-06-10T10:35:23;16.80;;;5.25;;
18501;SDS011;68437;52.236;5.710;2023-06-10T10:37:52;12.63;;;5.20;;
18501;SDS011;68437;52.236;5.710;2023-06-10T10:40:19;9.27;;;5.03;;
18501;SDS011;68437;52.236;5.710;2023-06-10T10:42:49;9.07;;;4.70;;
18501;SDS011;68437;52.236;5.710;2023-06-10T10:45:16;7.43;;;4.85;;
18501;SDS011;68437;52.236;5.710;2023-06-10T10:47:51;9.20;;;4.78;;
18501;SDS011;68437;52.236;5.710;2023-06-10T10:50:25;9.07;;;4.65;;
18501;SDS011;68437;52.236;5.710;2023-06-10T10:52:56;9.20;;;4.90;;
18501;SDS011;68437;52.236;5.710;2023-06-10T10:55:26;12.20;;;5.10;;
18501;SDS011;68437;52.236;5.710;2023-06-10T10:57:55;7.78;;;4.50;;
18501;SDS011;68437;52.236;5.710;2023-06-10T11:00:30;11.27;;;5.07;;
18501;SDS011;68437;52.236;5.710;2023-06-10T11:02:58;7.63;;;4.60;;
18501;SDS011;68437;52.236;5.710;2023-06-10T11:05:36;11.02;;;4.97;;
18501;SDS011;68437;52.236;5.710;2023-06-10T11:08:04;8.88;;;4.35;;
18501;SDS011;68437;52.236;5.710;2023-06-10T11:10:33;7.95;;;4.50;;
18501;SDS011;68437;52.236;5.710;2023-06-10T11:13:05;11.20;;;4.97;;
18501;SDS011;68437;52.236;5.710;2023-06-10T11:15:33;9.80;;;4.85;;
18501;SDS011;68437;52.236;5.710;2023-06-10T11:18:09;19.02;;;5.20;;
18501;SDS011;68437;52.236;5.710;2023-06-10T11:20:56;8.38;;;4.68;;
18501;SDS011;68437;52.236;5.710;2023-06-10T11:23:39;11.05;;;5.07;;
18501;SDS011;68437;52.236;5.710;2023-06-10T11:26:10;10.38;;;4.80;;
18501;SDS011;68437;52.236;5.710;2023-06-10T11:28:39;15.00;;;5.07;;
18501;SDS011;68437;52.236;5.710;2023-06-10T11:31:06;10.43;;;4.75;;
18501;SDS011;68437;52.236;5.710;2023-06-10T11:33:34;8.45;;;4.43;;
18501;SDS011;68437;52.236;5.710;2023-06-10T11:36:06;10.75;;;4.80;;
18501;SDS011;68437;52.236;5.710;2023-06-10T11:38:33;11.32;;;4.75;;
18501;SDS011;68437;52.236;5.710;2023-06-10T11:41:00;9.05;;;5.32;;
18501;SDS011;68437;52.236;5.710;2023-06-10T11:43:28;9.38;;;4.93;;
18501;SDS011;68437;52.236;5.710;2023-06-10T11:45:59;8.65;;;4.50;;
18501;SDS011;68437;52.236;5.710;2023-06-10T11:48:27;6.88;;;4.70;;
18501;SDS011;68437;52.236;5.710;2023-06-10T11:50:55;7.75;;;4.75;;
18501;SDS011;68437;52.236;5.710;2023-06-10T11:53:22;13.93;;;5.25;;
18501;SDS011;68437;52.236;5.710;2023-06-10T11:55:49;8.57;;;4.70;;
18501;SDS011;68437;52.236;5.710;2023-06-10T11:58:17;11.93;;;5.07;;
18501;SDS011;68437;52.236;5.710;2023-06-10T12:00:46;10.88;;;5.35;;
18501;SDS011;68437;52.236;5.710;2023-06-10T12:03:14;9.65;;;4.88;;
18501;SDS011;68437;52.236;5.710;2023-06-10T12:05:53;9.20;;;4.90;;
18501;SDS011;68437;52.236;5.710;2023-06-10T12:08:24;9.50;;;4.90;;
18501;SDS011;68437;52.236;5.710;2023-06-10T12:10:52;9.02;;;5.00;;
18501;SDS011;68437;52.236;5.710;2023-06-10T12:13:19;10.05;;;4.50;;
18501;SDS011;68437;52.236;5.710;2023-06-10T12:15:46;8.23;;;4.60;;
18501;SDS011;68437;52.236;5.710;2023-06-10T12:18:17;10.48;;;5.50;;
18501;SDS011;68437;52.236;5.710;2023-06-10T12:20:45;8.32;;;4.85;;
18501;SDS011;68437;52.236;5.710;2023-06-10T12:23:12;8.68;;;4.90;;
18501;SDS011;68437;52.236;5.710;2023-06-10T12:25:39;9.10;;;4.90;;
18501;SDS011;68437;52.236;5.710;2023-06-10T12:28:15;8.13;;;5.07;;
18501;SDS011;68437;52.236;5.710;2023-06-10T12:30:42;7.45;;;4.70;;
18501;SDS011;68437;52.236;5.710;2023-06-10T12:33:15;7.13;;;4.90;;
18501;SDS011;68437;52.236;5.710;2023-06-10T12:35:47;14.38;;;5.15;;
18501;SDS011;68437;52.236;5.710;2023-06-10T12:38:14;8.70;;;4.72;;
18501;SDS011;68437;52.236;5.710;2023-06-10T12:40:46;5.60;;;4.43;;
18501;SDS011;68437;52.236;5.710;2023-06-10T12:43:18;9.25;;;5.05;;
18501;SDS011;68437;52.236;5.710;2023-06-10T12:45:46;6.60;;;4.85;;
18501;SDS011;68437;52.236;5.710;2023-06-10T12:48:18;9.98;;;5.05;;
18501;SDS011;68437;52.236;5.710;2023-06-10T12:50:50;8.98;;;4.80;;
18501;SDS011;68437;52.236;5.710;2023-06-10T12:53:18;7.85;;;4.97;;
18501;SDS011;68437;52.236;5.710;2023-06-10T12:55:47;11.30;;;5.70;;
18501;SDS011;68437;52.236;5.710;2023-06-10T12:58:15;9.23;;;5.10;;
18501;SDS011;68437;52.236;5.710;2023-06-10T13:00:42;11.82;;;4.95;;
18501;SDS011;68437;52.236;5.710;2023-06-10T13:03:09;7.80;;;4.97;;
18501;SDS011;68437;52.236;5.710;2023-06-10T13:05:37;8.82;;;4.82;;
18501;SDS011;68437;52.236;5.710;2023-06-10T13:08:04;8.98;;;4.75;;
18501;SDS011;68437;52.236;5.710;2023-06-10T13:10:32;9.07;;;4.43;;
18501;SDS011;68437;52.236;5.710;2023-06-10T13:12:59;7.80;;;4.53;;
18501;SDS011;68437;52.236;5.710;2023-06-10T13:15:26;8.10;;;4.88;;
18501;SDS011;68437;52.236;5.710;2023-06-10T13:17:54;5.80;;;4.43;;
18501;SDS011;68437;52.236;5.710;2023-06-10T13:20:20;8.63;;;5.03;;
18501;SDS011;68437;52.236;5.710;2023-06-10T13:22:49;7.95;;;4.70;;
18501;SDS011;68437;52.236;5.710;2023-06-10T13:25:15;10.10;;;4.68;;
18501;SDS011;68437;52.236;5.710;2023-06-10T13:27:42;8.95;;;4.55;;
18501;SDS011;68437;52.236;5.710;2023-06-10T13:30:09;10.02;;;4.60;;
18501;SDS011;68437;52.236;5.710;2023-06-10T13:32:37;7.75;;;4.57;;
18501;SDS011;68437;52.236;5.710;2023-06-10T13:35:04;8.23;;;4.78;;
18501;SDS011;68437;52.236;5.710;2023-06-10T13:37:32;6.20;;;4.60;;
18501;SDS011;68437;52.236;5.710;2023-06-10T13:40:01;8.57;;;4.85;;
18501;SDS011;68437;52.236;5.710;2023-06-10T13:42:29;11.27;;;4.78;;
18501;SDS011;68437;52.236;5.710;2023-06-10T13:44:55;7.43;;;4.47;;
18501;SDS011;68437;52.236;5.710;2023-06-10T13:47:22;6.95;;;4.50;;
18501;SDS011;68437;52.236;5.710;2023-06-10T13:49:49;8.80;;;4.55;;
18501;SDS011;68437;52.236;5.710;2023-06-10T13:52:16;11.93;;;4.72;;
18501;SDS011;68437;52.236;5.710;2023-06-10T13:54:43;8.80;;;4.72;;
18501;SDS011;68437;52.236;5.710;2023-06-10T13:57:13;7.47;;;4.85;;
18501;SDS011;68437;52.236;5.710;2023-06-10T13:59:40;10.15;;;4.95;;
18501;SDS011;68437;52.236;5.710;2023-06-10T14:02:06;7.95;;;4.32;;
18501;SDS011;68437;52.236;5.710;2023-06-10T14:04:33;6.63;;;4.30;;
18501;SDS011;68437;52.236;5.710;2023-06-10T14:07:00;6.43;;;4.60;;
18501;SDS011;68437;52.236;5.710;2023-06-10T14:09:27;10.27;;;4.65;;
18501;SDS011;68437;52.236;5.710;2023-06-10T14:11:54;9.60;;;4.70;;
18501;SDS011;68437;52.236;5.710;2023-06-10T14:14:22;9.45;;;4.68;;
18501;SDS011;68437;52.236;5.710;2023-06-10T14:16:49;7.43;;;4.40;;
18501;SDS011;68437;52.236;5.710;2023-06-10T14:19:16;7.85;;;4.70;;
18501;SDS011;68437;52.236;5.710;2023-06-10T14:21:42;7.75;;;4.65;;
18501;SDS011;68437;52.236;5.710;2023-06-10T14:24:09;9.95;;;4.90;;
18501;SDS011;68437;52.236;5.710;2023-06-10T14:26:36;13.45;;;4.60;;
18501;SDS011;68437;52.236;5.710;2023-06-10T14:29:03;8.65;;;4.47;;
18501;SDS011;68437;52.236;5.710;2023-06-10T14:31:31;7.50;;;4.57;;
18501;SDS011;68437;52.236;5.710;2023-06-10T14:33:58;9.52;;;4.97;;
18501;SDS011;68437;52.236;5.710;2023-06-10T14:36:25;8.25;;;5.03;;
18501;SDS011;68437;52.236;5.710;2023-06-10T14:38:51;9.25;;;4.70;;
18501;SDS011;68437;52.236;5.710;2023-06-10T14:41:18;8.95;;;4.43;;
18501;SDS011;68437;52.236;5.710;2023-06-10T14:43:47;8.30;;;4.70;;